Time;durP1;ratioP1;P1;durP2;ratioP2;P2;SDS_P1;SDS_P2;PMS_P1;PMS_P2;Temp;Humidity;BMP_temperature;BMP_pressure;BME280_temperature;BME280_humidity;BME280_pressure;Samples;Min_cycle;Max_cycle;Signal;HPM_P1;HPM_P2
2023/08/08 00:00:39;;;;;;;;;;;;;;;;;;6343256;27;20042;-79
2023/08/08 00:03:39;;;;;;;1.92;1.10;;;;;;;;;;6339051;28;19908;-79
2023/08/08 00:06:40;;;;;;;5.73;1.27;;;;;;;;;;6340341;28;20114;-78
2023/08/08 00:09:40;;;;;;;1.57;1.40;;;;;;;;;;6345349;28;20031;-79
2023/08/08 00:12:40;;;;;;;2.93;0.80;;;;;;;;;;6340812;28;20744;-79
2023/08/08 00:15:41;;;;;;;2.20;1.40;;;;;;;;;;6339872;28;20089;-77
2023/08/08 00:18:41;;;;;;;2.57;1.30;;;;;;;;;;6343379;28;20023;-77
2023/08/08 00:21:41;;;;;;;4.13;1.50;;;;;;;;;;6341768;28;20022;-77
2023/08/08 00:24:42;;;;;;;2.20;1.17;;;;;;;;;;6339005;28;20089;-77
2023/08/08 00:27:43;;;;;;;3.60;1.33;;;;;;;;;;6345025;28;20035;-79
2023/08/08 00:30:44;;;;;;;2.30;1.60;;;;;;;;;;6343482;28;20031;-78
2023/08/08 00:33:44;;;;;;;2.17;1.40;;;;;;;;;;6339363;28;20072;-78
2023/08/08 00:36:44;;;;;;;2.50;1.70;;;;;;;;;;6339650;28;20074;-78
2023/08/08 00:39:46;;;;;;;1.40;1.30;;;;;;;;;;6345667;28;20462;-80
2023/08/08 00:42:46;;;;;;;3.87;1.20;;;;;;;;;;6335043;27;20020;-79
2023/08/08 00:45:46;;;;;;;3.22;1.65;;;;;;;;;;6338869;28;20311;-79
2023/08/08 00:48:46;;;;;;;3.13;1.43;;;;;;;;;;6341114;28;20027;-78
2023/08/08 00:51:47;;;;;;;3.77;1.30;;;;;;;;;;6340181;27;20036;-79
2023/08/08 00:54:48;;;;;;;4.00;1.20;;;;;;;;;;6347783;28;20051;-78
2023/08/08 00:57:48;;;;;;;4.57;1.57;;;;;;;;;;6347377;28;20024;-79
2023/08/08 01:00:48;;;;;;;3.93;1.30;;;;;;;;;;6339092;28;20019;-79
2023/08/08 01:03:49;;;;;;;4.32;1.52;;;;;;;;;;6336468;28;20016;-79
2023/08/08 01:06:52;;;;;;;7.83;1.30;;;;;;;;;;6344731;28;20024;-79
2023/08/08 01:09:54;;;;;;;4.43;1.45;;;;;;;;;;6344108;28;20062;-79
2023/08/08 01:13:16;;;;;;;0.90;0.90;;;;;;;;;;6344509;28;20109;-79
2023/08/08 01:16:17;;;;;;;1.88;1.50;;;;;;;;;;6348169;27;20023;-79
2023/08/08 01:19:22;;;;;;;5.93;1.87;;;;;;;;;;6343928;28;20032;-79
2023/08/08 01:22:29;;;;;;;4.07;1.33;;;;;;;;;;6342951;28;20115;-79
2023/08/08 01:25:30;;;;;;;6.13;1.42;;;;;;;;;;6338959;28;20031;-79
2023/08/08 01:28:30;;;;;;;3.87;1.90;;;;;;;;;;6339386;28;20492;-78
2023/08/08 01:31:30;;;;;;;5.17;1.60;;;;;;;;;;6338693;28;20016;-79
2023/08/08 01:34:30;;;;;;;3.15;1.42;;;;;;;;;;6339097;28;20027;-80
2023/08/08 01:37:40;;;;;;;2.80;1.37;;;;;;;;;;6335211;28;20030;-78
2023/08/08 01:40:43;;;;;;;5.30;2.22;;;;;;;;;;6338326;28;20038;-78
2023/08/08 01:43:45;;;;;;;4.68;2.03;;;;;;;;;;6331702;28;20035;-78
2023/08/08 01:46:45;;;;;;;6.85;1.98;;;;;;;;;;6336440;28;20432;-77
2023/08/08 01:49:45;;;;;;;1.77;1.50;;;;;;;;;;6338771;28;20111;-77
2023/08/08 01:52:45;;;;;;;2.43;1.63;;;;;;;;;;6339292;27;20066;-76
2023/08/08 01:55:46;;;;;;;1.30;1.20;;;;;;;;;;6341128;28;20043;-77
2023/08/08 01:58:47;;;;;;;3.60;1.30;;;;;;;;;;6338666;28;20102;-76
2023/08/08 02:01:47;;;;;;;3.87;1.37;;;;;;;;;;6340901;28;20050;-75
2023/08/08 02:04:47;;;;;;;3.23;1.33;;;;;;;;;;6343986;28;20022;-76
2023/08/08 02:07:47;;;;;;;3.37;1.33;;;;;;;;;;6342473;28;20500;-76
2023/08/08 02:10:47;;;;;;;1.85;1.40;;;;;;;;;;6343592;28;20099;-76
2023/08/08 02:13:48;;;;;;;2.65;1.60;;;;;;;;;;6342260;28;20032;-76
2023/08/08 02:16:48;;;;;;;1.93;1.30;;;;;;;;;;6339744;28;20027;-77
2023/08/08 02:19:48;;;;;;;2.87;1.33;;;;;;;;;;6338415;28;20020;-76
2023/08/08 02:22:49;;;;;;;7.07;2.20;;;;;;;;;;6343860;28;20110;-77
2023/08/08 02:25:50;;;;;;;5.33;2.10;;;;;;;;;;6339426;28;20411;-77
2023/08/08 02:28:50;;;;;;;5.60;2.20;;;;;;;;;;6343037;28;20265;-77
2023/08/08 02:31:50;;;;;;;4.72;2.20;;;;;;;;;;6342883;28;20112;-77
2023/08/08 02:34:52;;;;;;;4.17;1.80;;;;;;;;;;6320777;28;20038;-77
2023/08/08 02:37:52;;;;;;;3.10;2.28;;;;;;;;;;6339827;28;20028;-76
2023/08/08 02:40:53;;;;;;;4.07;1.87;;;;;;;;;;6338695;28;20020;-77
2023/08/08 02:43:53;;;;;;;13.00;2.30;;;;;;;;;;6342832;28;20024;-77
2023/08/08 02:46:53;;;;;;;6.90;1.93;;;;;;;;;;6338782;28;20469;-77
2023/08/08 02:49:53;;;;;;;4.43;2.33;;;;;;;;;;6337530;28;20104;-77
2023/08/08 02:52:54;;;;;;;6.20;2.27;;;;;;;;;;6335396;28;20051;-77
2023/08/08 02:55:54;;;;;;;5.15;2.58;;;;;;;;;;6340404;28;20386;-77
2023/08/08 02:58:54;;;;;;;3.40;2.43;;;;;;;;;;6339754;28;20059;-77
2023/08/08 03:01:54;;;;;;;6.40;2.60;;;;;;;;;;6340528;28;20098;-77
2023/08/08 03:04:55;;;;;;;3.27;2.20;;;;;;;;;;6341832;28;20028;-77
2023/08/08 03:07:55;;;;;;;5.00;3.00;;;;;;;;;;6336586;28;20076;-76
2023/08/08 03:10:55;;;;;;;5.53;2.72;;;;;;;;;;6336769;28;20032;-76
2023/08/08 03:13:55;;;;;;;4.53;2.87;;;;;;;;;;6318719;28;20035;-76
2023/08/08 03:16:55;;;;;;;6.70;2.73;;;;;;;;;;6337135;28;20074;-76
2023/08/08 03:19:56;;;;;;;5.40;3.03;;;;;;;;;;6344109;28;20111;-76
2023/08/08 03:22:56;;;;;;;13.03;2.97;;;;;;;;;;6345269;28;20023;-76
2023/08/08 03:25:57;;;;;;;6.53;3.40;;;;;;;;;;6344977;28;20073;-76
2023/08/08 03:28:58;;;;;;;6.60;3.45;;;;;;;;;;6344318;28;20023;-76
2023/08/08 03:31:58;;;;;;;3.35;2.30;;;;;;;;;;6345319;28;20039;-76
2023/08/08 03:34:58;;;;;;;4.53;2.97;;;;;;;;;;6345869;28;20036;-76
2023/08/08 03:37:58;;;;;;;5.03;2.33;;;;;;;;;;6346346;28;20095;-76
2023/08/08 03:40:58;;;;;;;4.57;2.20;;;;;;;;;;6345773;28;20019;-77
2023/08/08 03:43:59;;;;;;;6.10;2.83;;;;;;;;;;6346245;28;20035;-77
2023/08/08 03:46:59;;;;;;;5.87;2.70;;;;;;;;;;6346214;28;20040;-79
2023/08/08 03:49:59;;;;;;;5.20;3.03;;;;;;;;;;6344544;28;20027;-79
2023/08/08 03:52:59;;;;;;;6.00;2.67;;;;;;;;;;6342807;28;20646;-79
2023/08/08 03:56:00;;;;;;;9.20;2.80;;;;;;;;;;6339785;28;20047;-79
2023/08/08 03:59:00;;;;;;;6.03;2.70;;;;;;;;;;6341318;28;20389;-79
2023/08/08 04:02:00;;;;;;;4.97;2.67;;;;;;;;;;6341607;28;20027;-79
2023/08/08 04:05:00;;;;;;;4.03;2.40;;;;;;;;;;6344658;28;20107;-77
2023/08/08 04:08:01;;;;;;;7.40;3.67;;;;;;;;;;6343934;28;20032;-77
2023/08/08 04:11:01;;;;;;;2.47;1.73;;;;;;;;;;6344397;28;20114;-77
2023/08/08 04:14:03;;;;;;;10.00;2.53;;;;;;;;;;6345251;28;20076;-77
2023/08/08 04:17:04;;;;;;;7.40;3.08;;;;;;;;;;6341556;28;20561;-79
2023/08/08 04:20:06;;;;;;;7.50;3.00;;;;;;;;;;6340512;28;20393;-79
2023/08/08 04:23:06;;;;;;;5.13;2.70;;;;;;;;;;6341559;28;20024;-79
2023/08/08 04:26:08;;;;;;;4.90;2.47;;;;;;;;;;6342776;28;20040;-77
2023/08/08 04:29:08;;;;;;;3.67;2.28;;;;;;;;;;6345144;28;20482;-77
2023/08/08 04:32:08;;;;;;;4.00;2.47;;;;;;;;;;6342436;28;20016;-77
2023/08/08 04:35:09;;;;;;;6.07;2.90;;;;;;;;;;6338978;27;20720;-78
2023/08/08 04:38:10;;;;;;;5.40;1.70;;;;;;;;;;6336379;28;20015;-77
2023/08/08 04:41:10;;;;;;;7.40;3.00;;;;;;;;;;6339721;28;20058;-77
2023/08/08 04:44:10;;;;;;;5.30;2.30;;;;;;;;;;6341179;28;20031;-76
2023/08/08 04:47:11;;;;;;;3.15;2.72;;;;;;;;;;6343695;28;20697;-76
2023/08/08 04:50:11;;;;;;;9.68;2.90;;;;;;;;;;6345491;27;20030;-76
2023/08/08 04:53:12;;;;;;;6.17;3.23;;;;;;;;;;6344139;27;20518;-78
2023/08/08 04:56:13;;;;;;;10.32;2.92;;;;;;;;;;6344467;27;20039;-78
2023/08/08 04:59:13;;;;;;;4.73;2.30;;;;;;;;;;6342835;27;20472;-78
2023/08/08 05:02:13;;;;;;;3.38;1.92;;;;;;;;;;6342762;27;20032;-78
2023/08/08 05:05:14;;;;;;;4.13;2.80;;;;;;;;;;6344264;28;20106;-79
2023/08/08 05:08:14;;;;;;;4.67;2.97;;;;;;;;;;6343647;28;20416;-79
2023/08/08 05:11:14;;;;;;;3.80;2.00;;;;;;;;;;6343369;28;20034;-79
2023/08/08 05:14:15;;;;;;;4.07;2.07;;;;;;;;;;6343110;28;20015;-78
2023/08/08 05:17:15;;;;;;;7.82;3.00;;;;;;;;;;6344105;28;20050;-78
2023/08/08 05:20:16;;;;;;;5.32;2.30;;;;;;;;;;6343157;28;20019;-78
2023/08/08 05:23:17;;;;;;;4.93;2.40;;;;;;;;;;6340661;28;20027;-78
2023/08/08 05:26:17;;;;;;;3.65;1.17;;;;;;;;;;6337404;28;20114;-78
2023/08/08 05:29:17;;;;;;;4.63;2.13;;;;;;;;;;6341730;28;20023;-78
2023/08/08 05:32:18;;;;;;;1.85;1.13;;;;;;;;;;6342960;28;20011;-78
2023/08/08 05:35:18;;;;;;;2.37;2.03;;;;;;;;;;6342925;28;20496;-78
2023/08/08 05:38:20;;;;;;;8.60;2.40;;;;;;;;;;6343367;28;20496;-78
2023/08/08 05:41:20;;;;;;;5.45;2.00;;;;;;;;;;6336172;28;20030;-79
2023/08/08 05:44:20;;;;;;;8.37;2.27;;;;;;;;;;6344163;27;20024;-78
2023/08/08 05:47:20;;;;;;;8.97;2.43;;;;;;;;;;6342079;28;20023;-78
2023/08/08 05:50:21;;;;;;;6.05;2.33;;;;;;;;;;6343293;28;20054;-79
2023/08/08 05:53:21;;;;;;;1.77;1.20;;;;;;;;;;6342795;28;20051;-78
2023/08/08 05:56:21;;;;;;;5.37;2.30;;;;;;;;;;6343439;28;20093;-78
2023/08/08 05:59:23;;;;;;;6.13;2.00;;;;;;;;;;6343293;28;20347;-77
2023/08/08 06:02:23;;;;;;;5.13;2.22;;;;;;;;;;6342843;28;20852;-77
2023/08/08 06:05:24;;;;;;;5.00;2.87;;;;;;;;;;6341507;28;20015;-77
2023/08/08 06:08:24;;;;;;;4.87;2.03;;;;;;;;;;6345909;27;20022;-77
2023/08/08 06:11:24;;;;;;;3.65;2.90;;;;;;;;;;6342562;27;20018;-77
2023/08/08 06:14:26;;;;;;;2.43;1.90;;;;;;;;;;6343609;28;20016;-77
2023/08/08 06:17:26;;;;;;;6.28;2.55;;;;;;;;;;6337670;28;20020;-77
2023/08/08 06:20:28;;;;;;;5.37;2.23;;;;;;;;;;6346188;27;20019;-77
2023/08/08 06:23:28;;;;;;;4.80;2.20;;;;;;;;;;6340709;28;20378;-77
2023/08/08 06:26:28;;;;;;;5.17;2.43;;;;;;;;;;6341993;28;20039;-78
2023/08/08 06:29:30;;;;;;;6.67;2.77;;;;;;;;;;6341086;28;20023;-78
2023/08/08 06:32:30;;;;;;;7.68;2.10;;;;;;;;;;6340790;28;20007;-77
2023/08/08 06:35:31;;;;;;;4.83;2.20;;;;;;;;;;6336195;28;20032;-78
2023/08/08 06:38:34;;;;;;;2.83;1.83;;;;;;;;;;6339943;28;20431;-78
2023/08/08 06:41:35;;;;;;;4.45;2.30;;;;;;;;;;6338356;28;20043;-77
2023/08/08 06:44:41;;;;;;;8.90;2.15;;;;;;;;;;6341868;28;20058;-77
2023/08/08 06:47:41;;;;;;;4.38;2.13;;;;;;;;;;6323302;28;20022;-77
2023/08/08 06:50:41;;;;;;;4.35;2.38;;;;;;;;;;6330194;28;20062;-76
2023/08/08 06:53:41;;;;;;;3.03;2.08;;;;;;;;;;6340097;28;20088;-77
2023/08/08 06:56:42;;;;;;;7.13;2.50;;;;;;;;;;6340894;28;20388;-77
2023/08/08 06:59:42;;;;;;;2.20;1.70;;;;;;;;;;6346115;28;20439;-77
2023/08/08 07:02:44;;;;;;;8.47;1.90;;;;;;;;;;6346140;28;20022;-78
2023/08/08 07:05:44;;;;;;;2.80;1.83;;;;;;;;;;6343931;28;20099;-77
2023/08/08 07:08:44;;;;;;;3.73;1.73;;;;;;;;;;6346420;28;20034;-77
2023/08/08 07:11:44;;;;;;;2.78;1.50;;;;;;;;;;6346651;28;20015;-78
2023/08/08 07:14:44;;;;;;;4.82;1.70;;;;;;;;;;6346542;28;20104;-77
2023/08/08 07:17:45;;;;;;;6.50;1.77;;;;;;;;;;6346060;28;20038;-78
2023/08/08 07:20:46;;;;;;;9.63;1.67;;;;;;;;;;6346109;28;20095;-78
2023/08/08 07:23:46;;;;;;;2.25;1.15;;;;;;;;;;6344944;28;20263;-78
2023/08/08 07:26:46;;;;;;;2.10;1.55;;;;;;;;;;6346335;28;20023;-78
2023/08/08 07:29:47;;;;;;;5.97;2.10;;;;;;;;;;6346037;28;20019;-78
2023/08/08 07:32:47;;;;;;;2.57;1.57;;;;;;;;;;6323556;28;20026;-77
2023/08/08 07:35:47;;;;;;;4.00;1.67;;;;;;;;;;6345584;27;20055;-76
2023/08/08 07:38:48;;;;;;;3.60;1.67;;;;;;;;;;6343444;28;20019;-76
2023/08/08 07:41:48;;;;;;;3.35;1.20;;;;;;;;;;6336058;28;20149;-76
2023/08/08 07:44:48;;;;;;;5.10;1.90;;;;;;;;;;6333893;28;20070;-77
2023/08/08 07:47:49;;;;;;;2.35;1.48;;;;;;;;;;6341620;28;20389;-78
2023/08/08 07:50:50;;;;;;;2.90;1.40;;;;;;;;;;6339585;28;20020;-76
2023/08/08 07:53:50;;;;;;;1.80;1.37;;;;;;;;;;6342876;28;20520;-75
2023/08/08 07:56:50;;;;;;;4.72;2.80;;;;;;;;;;6339491;28;20078;-76
2023/08/08 07:59:50;;;;;;;3.40;1.80;;;;;;;;;;6345997;27;20450;-76
2023/08/08 08:02:51;;;;;;;10.03;2.10;;;;;;;;;;6343919;28;20069;-75
2023/08/08 08:05:52;;;;;;;5.47;2.25;;;;;;;;;;6339558;28;20057;-79
2023/08/08 08:08:52;;;;;;;4.13;1.50;;;;;;;;;;6341510;28;20796;-77
2023/08/08 08:11:54;;;;;;;2.20;1.60;;;;;;;;;;6337134;28;20008;-78
2023/08/08 08:14:54;;;;;;;4.72;1.90;;;;;;;;;;6343818;27;20501;-80
2023/08/08 08:17:55;;;;;;;3.80;2.35;;;;;;;;;;6345160;28;20018;-77
2023/08/08 08:20:55;;;;;;;6.00;1.77;;;;;;;;;;6344673;28;20481;-79
2023/08/08 08:23:55;;;;;;;2.17;1.33;;;;;;;;;;6343993;28;20381;-78
2023/08/08 08:26:56;;;;;;;3.20;2.10;;;;;;;;;;6338852;28;20019;-77
2023/08/08 08:29:56;;;;;;;4.67;2.10;;;;;;;;;;6344924;28;20024;-76
2023/08/08 08:32:56;;;;;;;5.30;2.07;;;;;;;;;;6340917;28;20062;-76
2023/08/08 08:35:57;;;;;;;4.57;1.65;;;;;;;;;;6341370;28;20028;-77
2023/08/08 08:38:57;;;;;;;4.65;1.65;;;;;;;;;;6341492;28;20035;-75
2023/08/08 08:42:01;;;;;;;6.63;1.50;;;;;;;;;;6339949;27;20035;-76
2023/08/08 08:45:02;;;;;;;4.97;1.48;;;;;;;;;;6346484;27;20088;-76
2023/08/08 08:48:03;;;;;;;4.10;1.98;;;;;;;;;;6345276;28;20102;-75
2023/08/08 08:51:03;;;;;;;5.18;1.85;;;;;;;;;;6341147;28;20373;-76
2023/08/08 08:54:03;;;;;;;4.27;1.50;;;;;;;;;;6347693;27;20063;-75
2023/08/08 08:57:04;;;;;;;2.60;1.23;;;;;;;;;;6343930;28;20019;-75
2023/08/08 09:00:05;;;;;;;2.30;1.40;;;;;;;;;;6344468;27;20016;-76
2023/08/08 09:03:06;;;;;;;;;;;;;;;;;;6342427;28;20472;-75
2023/08/08 09:06:06;;;;;;;5.57;1.57;;;;;;;;;;6342500;28;19956;-75
2023/08/08 09:09:07;;;;;;;2.87;1.83;;;;;;;;;;6348170;27;20027;-75
2023/08/08 09:12:07;;;;;;;2.30;1.15;;;;;;;;;;6346175;27;20024;-75
2023/08/08 09:15:09;;;;;;;3.33;1.77;;;;;;;;;;6343723;28;20603;-76
2023/08/08 09:18:09;;;;;;;3.72;1.98;;;;;;;;;;6339653;28;20015;-74
2023/08/08 09:21:09;;;;;;;2.63;1.73;;;;;;;;;;6338610;28;20090;-76
2023/08/08 09:24:11;;;;;;;4.10;2.20;;;;;;;;;;6340075;28;20388;-75
2023/08/08 09:27:11;;;;;;;8.52;1.45;;;;;;;;;;6339726;28;20055;-75
2023/08/08 09:30:11;;;;;;;8.05;2.80;;;;;;;;;;6332610;28;20042;-77
2023/08/08 09:33:12;;;;;;;3.57;1.40;;;;;;;;;;6339927;28;20023;-77
2023/08/08 09:36:15;;;;;;;3.60;1.67;;;;;;;;;;6340960;27;20023;-77
2023/08/08 09:39:16;;;;;;;5.22;2.22;;;;;;;;;;6345198;27;20090;-78
2023/08/08 09:42:17;;;;;;;4.60;1.90;;;;;;;;;;6342817;28;20547;-78
2023/08/08 09:45:17;;;;;;;5.07;1.60;;;;;;;;;;6341808;28;20024;-77
2023/08/08 09:48:18;;;;;;;6.17;1.93;;;;;;;;;;6344596;27;20485;-77
2023/08/08 09:51:20;;;;;;;5.03;1.90;;;;;;;;;;6343177;28;20119;-79
2023/08/08 09:54:20;;;;;;;7.13;2.75;;;;;;;;;;6341025;28;20075;-78
2023/08/08 09:57:22;;;;;;;3.67;2.00;;;;;;;;;;6341803;27;20112;-78
2023/08/08 10:00:24;;;;;;;4.15;1.65;;;;;;;;;;6341737;28;20757;-78
2023/08/08 10:03:26;;;;;;;4.55;2.58;;;;;;;;;;6340329;27;20459;-78
2023/08/08 10:06:26;;;;;;;5.90;2.10;;;;;;;;;;6340779;28;20039;-78
2023/08/08 10:09:26;;;;;;;4.93;2.07;;;;;;;;;;6342152;28;20129;-78
2023/08/08 10:12:27;;;;;;;4.90;2.23;;;;;;;;;;6345240;27;20019;-78
2023/08/08 10:15:27;;;;;;;3.93;2.50;;;;;;;;;;6344176;27;20491;-78
2023/08/08 10:18:27;;;;;;;4.10;2.20;;;;;;;;;;6336376;28;20069;-78
2023/08/08 10:21:28;;;;;;;6.83;2.40;;;;;;;;;;6341823;28;20484;-78
2023/08/08 10:24:33;;;;;;;4.32;2.08;;;;;;;;;;6339680;28;20028;-77
2023/08/08 10:27:35;;;;;;;3.47;2.05;;;;;;;;;;6338867;28;20364;-78
2023/08/08 10:30:45;;;;;;;2.90;1.90;;;;;;;;;;6340159;28;20734;-77
2023/08/08 10:33:45;;;;;;;3.03;1.55;;;;;;;;;;6341820;28;20030;-77
2023/08/08 10:36:49;;;;;;;2.90;1.50;;;;;;;;;;6344239;28;20023;-77
2023/08/08 10:39:51;;;;;;;2.47;1.40;;;;;;;;;;6339722;28;20031;-78
2023/08/08 10:42:52;;;;;;;7.97;2.08;;;;;;;;;;6340938;28;20075;-79
2023/08/08 10:45:52;;;;;;;5.73;2.30;;;;;;;;;;6338920;28;20043;-78
2023/08/08 10:48:53;;;;;;;4.43;2.57;;;;;;;;;;6340966;28;20023;-77
2023/08/08 10:51:54;;;;;;;4.97;1.85;;;;;;;;;;6338771;28;20135;-77
2023/08/08 10:54:55;;;;;;;2.90;1.00;;;;;;;;;;6339730;28;20383;-78
2023/08/08 10:57:59;;;;;;;2.13;1.50;;;;;;;;;;6333711;28;20016;-77
2023/08/08 11:01:00;;;;;;;2.72;2.17;;;;;;;;;;6341731;28;20095;-77
2023/08/08 11:04:01;;;;;;;4.78;2.42;;;;;;;;;;6333086;28;20102;-77
2023/08/08 11:07:02;;;;;;;;;;;;;;;;;;6341375;28;20422;-78
2023/08/08 11:10:03;;;;;;;1.80;1.37;;;;;;;;;;6340945;28;19908;-78
2023/08/08 11:13:04;;;;;;;3.60;1.42;;;;;;;;;;6339206;28;20508;-76
2023/08/08 11:16:04;;;;;;;4.90;2.35;;;;;;;;;;6334859;28;20088;-80
2023/08/08 11:19:05;;;;;;;2.83;1.80;;;;;;;;;;6342593;28;20094;-78
2023/08/08 11:22:09;;;;;;;4.27;1.77;;;;;;;;;;6341886;28;20060;-78
2023/08/08 11:25:09;;;;;;;2.70;1.90;;;;;;;;;;6334087;28;20024;-77
2023/08/08 11:28:10;;;;;;;2.27;1.70;;;;;;;;;;6336601;28;20574;-78
2023/08/08 11:31:10;;;;;;;3.33;1.45;;;;;;;;;;6339942;28;20034;-78
2023/08/08 11:34:12;;;;;;;2.97;1.45;;;;;;;;;;6340977;28;20433;-77
2023/08/08 11:37:15;;;;;;;3.97;1.77;;;;;;;;;;6341251;28;20031;-78
2023/08/08 11:40:15;;;;;;;1.42;1.20;;;;;;;;;;6339555;28;20055;-78
2023/08/08 11:43:16;;;;;;;2.92;1.52;;;;;;;;;;6345678;27;20026;-78
2023/08/08 11:46:17;;;;;;;5.63;2.17;;;;;;;;;;6344088;28;20043;-76
2023/08/08 11:49:17;;;;;;;3.83;1.48;;;;;;;;;;6346473;27;20065;-77
2023/08/08 11:52:18;;;;;;;5.23;1.40;;;;;;;;;;6345630;28;20096;-77
2023/08/08 11:55:23;;;;;;;4.43;1.90;;;;;;;;;;6350075;27;20042;-76
2023/08/08 11:58:25;;;;;;;2.58;1.52;;;;;;;;;;6344068;28;20038;-77
2023/08/08 12:01:25;;;;;;;5.00;0.93;;;;;;;;;;6342521;27;20492;-77
2023/08/08 12:04:26;;;;;;;0.83;0.83;;;;;;;;;;6344159;28;20473;-77
2023/08/08 12:07:26;;;;;;;2.63;1.50;;;;;;;;;;6343608;28;20366;-76
2023/08/08 12:10:28;;;;;;;1.20;0.98;;;;;;;;;;6342313;28;20382;-76
2023/08/08 12:13:28;;;;;;;4.35;1.50;;;;;;;;;;6339826;28;20058;-76
2023/08/08 12:16:32;;;;;;;3.10;1.57;;;;;;;;;;6345330;28;20513;-76
2023/08/08 12:19:32;;;;;;;4.47;1.73;;;;;;;;;;6332144;28;20359;-75
2023/08/08 12:22:33;;;;;;;1.40;1.20;;;;;;;;;;6342299;28;20020;-76
2023/08/08 12:25:33;;;;;;;2.23;1.33;;;;;;;;;;6342295;28;20858;-76
2023/08/08 12:28:34;;;;;;;4.90;1.50;;;;;;;;;;6339033;27;20298;-75
2023/08/08 12:31:35;;;;;;;3.33;1.42;;;;;;;;;;6340326;28;20134;-75
2023/08/08 12:34:35;;;;;;;3.03;1.20;;;;;;;;;;6343647;27;20022;-75
2023/08/08 12:37:36;;;;;;;2.23;1.10;;;;;;;;;;6340386;27;20011;-75
2023/08/08 12:40:36;;;;;;;2.28;1.20;;;;;;;;;;6335686;27;20730;-75
2023/08/08 12:43:36;;;;;;;3.90;1.20;;;;;;;;;;6330051;27;20020;-76
2023/08/08 12:46:37;;;;;;;1.20;0.75;;;;;;;;;;6334639;27;20102;-75
2023/08/08 12:49:38;;;;;;;3.37;0.97;;;;;;;;;;6335583;27;20069;-74
2023/08/08 12:52:39;;;;;;;3.15;1.73;;;;;;;;;;6331395;27;20114;-74
2023/08/08 12:55:39;;;;;;;2.35;1.40;;;;;;;;;;6337487;28;20027;-76
2023/08/08 12:58:41;;;;;;;1.38;0.93;;;;;;;;;;6335155;27;20026;-76
2023/08/08 13:01:41;;;;;;;1.70;0.90;;;;;;;;;;6341043;27;20072;-76
2023/08/08 13:04:41;;;;;;;2.47;1.70;;;;;;;;;;6336532;28;20069;-77
2023/08/08 13:07:41;;;;;;;4.40;1.30;;;;;;;;;;6334531;28;20035;-75
2023/08/08 13:10:42;;;;;;;4.70;1.57;;;;;;;;;;6336088;27;20030;-75
2023/08/08 13:13:42;;;;;;;1.87;1.57;;;;;;;;;;6334911;27;20022;-75
2023/08/08 13:16:42;;;;;;;2.10;1.20;;;;;;;;;;6337313;28;20011;-76
2023/08/08 13:19:43;;;;;;;2.83;1.50;;;;;;;;;;6337831;28;20023;-76
2023/08/08 13:22:43;;;;;;;3.00;1.80;;;;;;;;;;6339387;27;20075;-76
2023/08/08 13:25:43;;;;;;;4.03;1.80;;;;;;;;;;6335628;28;20035;-76
2023/08/08 13:28:43;;;;;;;3.50;1.60;;;;;;;;;;6335146;27;20023;-76
2023/08/08 13:31:43;;;;;;;2.17;1.52;;;;;;;;;;6339740;27;20027;-76
2023/08/08 13:34:44;;;;;;;2.70;1.50;;;;;;;;;;6334041;28;20747;-76
2023/08/08 13:37:45;;;;;;;2.58;2.00;;;;;;;;;;6333017;27;20503;-78
2023/08/08 13:40:45;;;;;;;2.45;1.00;;;;;;;;;;6345001;27;20023;-77
2023/08/08 13:43:46;;;;;;;2.30;1.30;;;;;;;;;;6337946;28;20047;-77
2023/08/08 13:46:46;;;;;;;3.37;1.50;;;;;;;;;;6331956;28;20028;-77
2023/08/08 13:49:46;;;;;;;1.25;0.95;;;;;;;;;;6334470;28;20023;-77
2023/08/08 13:52:46;;;;;;;1.30;1.00;;;;;;;;;;6341582;27;20065;-77
2023/08/08 13:55:47;;;;;;;2.23;1.40;;;;;;;;;;6338918;28;20523;-77
2023/08/08 13:58:47;;;;;;;5.60;2.63;;;;;;;;;;6338580;28;20011;-77
2023/08/08 14:01:47;;;;;;;1.57;1.03;;;;;;;;;;6334970;28;20019;-77
2023/08/08 14:04:47;;;;;;;1.47;1.10;;;;;;;;;;6339428;27;20031;-77
2023/08/08 14:07:47;;;;;;;1.27;0.80;;;;;;;;;;6339486;28;20026;-77
2023/08/08 14:10:48;;;;;;;1.87;0.90;;;;;;;;;;6335931;28;20501;-78
2023/08/08 14:13:48;;;;;;;4.50;1.37;;;;;;;;;;6339312;27;20012;-76
2023/08/08 14:16:48;;;;;;;3.50;1.10;;;;;;;;;;6339233;28;20047;-75
2023/08/08 14:19:48;;;;;;;3.83;1.10;;;;;;;;;;6339065;28;20531;-76
2023/08/08 14:22:48;;;;;;;1.37;1.27;;;;;;;;;;6340667;28;20397;-76
2023/08/08 14:25:49;;;;;;;1.23;0.80;;;;;;;;;;6331501;28;20058;-77
2023/08/08 14:28:49;;;;;;;1.87;1.20;;;;;;;;;;6339321;28;20488;-77
2023/08/08 14:31:49;;;;;;;2.50;1.35;;;;;;;;;;6338853;28;20104;-76
2023/08/08 14:34:49;;;;;;;6.47;3.00;;;;;;;;;;6335969;28;20023;-75
2023/08/08 14:37:50;;;;;;;3.00;1.30;;;;;;;;;;6339069;28;20023;-75
2023/08/08 14:40:50;;;;;;;1.63;1.07;;;;;;;;;;6339718;28;20102;-75
2023/08/08 14:43:51;;;;;;;2.63;1.15;;;;;;;;;;6339328;28;20513;-75
2023/08/08 14:46:51;;;;;;;2.17;1.40;;;;;;;;;;6338530;28;20015;-75
2023/08/08 14:49:52;;;;;;;4.70;1.70;;;;;;;;;;6343291;28;20515;-75
2023/08/08 14:52:52;;;;;;;4.53;1.50;;;;;;;;;;6339666;28;20042;-75
2023/08/08 14:55:53;;;;;;;1.85;1.48;;;;;;;;;;6337846;28;20059;-76
2023/08/08 14:58:53;;;;;;;;;;;;;;;;;;6336094;28;20485;-77
2023/08/08 15:01:54;;;;;;;4.18;1.60;;;;;;;;;;6340595;28;20027;-76
2023/08/08 15:04:55;;;;;;;1.35;1.20;;;;;;;;;;6339544;28;20023;-76
2023/08/08 15:07:55;;;;;;;2.33;1.50;;;;;;;;;;6341110;28;20023;-77
2023/08/08 15:10:56;;;;;;;2.50;1.30;;;;;;;;;;6340329;28;20027;-77
2023/08/08 15:13:57;;;;;;;2.15;1.20;;;;;;;;;;6341048;28;20766;-77
2023/08/08 15:16:57;;;;;;;3.78;1.50;;;;;;;;;;6338061;28;20052;-77
2023/08/08 15:19:57;;;;;;;1.70;1.27;;;;;;;;;;6349227;27;20102;-76
2023/08/08 15:22:57;;;;;;;2.97;1.88;;;;;;;;;;6344046;28;20429;-77
2023/08/08 15:25:59;;;;;;;3.90;1.60;;;;;;;;;;6339731;28;20020;-77
2023/08/08 15:29:00;;;;;;;2.33;1.58;;;;;;;;;;6332676;27;20548;-77
2023/08/08 15:32:00;;;;;;;2.42;1.83;;;;;;;;;;6344105;27;20023;-77
2023/08/08 15:35:01;;;;;;;3.27;1.70;;;;;;;;;;6341298;28;20023;-75
2023/08/08 15:38:02;;;;;;;3.60;1.98;;;;;;;;;;6344600;28;20500;-75
2023/08/08 15:41:02;;;;;;;2.78;2.20;;;;;;;;;;6344629;27;20020;-75
2023/08/08 15:44:02;;;;;;;5.47;1.57;;;;;;;;;;6344875;28;20382;-75
2023/08/08 15:47:04;;;;;;;7.77;2.10;;;;;;;;;;6341460;28;20024;-75
2023/08/08 15:50:05;;;;;;;6.03;2.50;;;;;;;;;;6348866;27;20050;-74
2023/08/08 15:53:07;;;;;;;4.63;1.90;;;;;;;;;;6345253;28;20036;-75
2023/08/08 15:56:07;;;;;;;4.35;2.60;;;;;;;;;;6344566;28;20023;-75
2023/08/08 15:59:07;;;;;;;5.03;2.20;;;;;;;;;;6342136;28;20077;-74
2023/08/08 16:02:07;;;;;;;2.55;1.50;;;;;;;;;;6340609;27;20015;-74
2023/08/08 16:05:13;;;;;;;3.20;1.97;;;;;;;;;;6344172;28;20028;-76
2023/08/08 16:08:13;;;;;;;2.88;1.75;;;;;;;;;;6345556;27;20505;-77
2023/08/08 16:11:13;;;;;;;2.57;2.27;;;;;;;;;;6344245;28;20023;-77
2023/08/08 16:14:13;;;;;;;3.00;2.22;;;;;;;;;;6342891;28;20076;-77
2023/08/08 16:17:14;;;;;;;2.00;1.58;;;;;;;;;;6348911;27;20019;-77
2023/08/08 16:20:14;;;;;;;3.87;1.87;;;;;;;;;;6345614;27;20018;-77
2023/08/08 16:23:15;;;;;;;1.97;1.50;;;;;;;;;;6345666;28;20776;-77
2023/08/08 16:26:15;;;;;;;3.00;1.70;;;;;;;;;;6344966;28;20020;-76
2023/08/08 16:29:16;;;;;;;2.57;2.17;;;;;;;;;;6344654;28;20386;-76
2023/08/08 16:32:16;;;;;;;1.90;1.77;;;;;;;;;;6343406;27;20027;-76
2023/08/08 16:35:16;;;;;;;3.40;2.13;;;;;;;;;;6346643;27;20023;-76
2023/08/08 16:38:17;;;;;;;2.10;1.80;;;;;;;;;;6344931;28;20114;-77
2023/08/08 16:41:17;;;;;;;2.33;1.80;;;;;;;;;;6346322;27;20019;-78
2023/08/08 16:44:18;;;;;;;4.40;1.80;;;;;;;;;;6344740;28;20027;-78
2023/08/08 16:47:18;;;;;;;5.97;2.33;;;;;;;;;;6340096;28;20043;-78
2023/08/08 16:50:18;;;;;;;2.65;1.90;;;;;;;;;;6341132;28;20522;-77
2023/08/08 16:53:18;;;;;;;7.87;1.60;;;;;;;;;;6346088;27;20088;-78
2023/08/08 16:56:20;;;;;;;2.67;1.43;;;;;;;;;;6344867;28;20059;-77
2023/08/08 16:59:20;;;;;;;3.35;1.70;;;;;;;;;;6342990;28;20209;-78
2023/08/08 17:02:20;;;;;;;2.50;2.07;;;;;;;;;;6342667;28;20023;-77
2023/08/08 17:05:21;;;;;;;5.47;2.60;;;;;;;;;;6344467;28;20038;-77
2023/08/08 17:08:22;;;;;;;3.72;2.55;;;;;;;;;;6336626;27;20020;-77
2023/08/08 17:11:23;;;;;;;2.37;1.43;;;;;;;;;;6342897;28;20486;-76
2023/08/08 17:14:24;;;;;;;;;;;;;;;;;;6339649;28;20370;-77
2023/08/08 17:17:25;;;;;;;4.57;1.63;;;;;;;;;;6340727;28;19904;-76
2023/08/08 17:20:26;;;;;;;3.05;2.00;;;;;;;;;;6350533;27;20035;-77
2023/08/08 17:23:28;;;;;;;3.27;1.53;;;;;;;;;;6345078;27;20047;-76
2023/08/08 17:26:28;;;;;;;3.60;1.40;;;;;;;;;;6342589;28;20057;-76
2023/08/08 17:29:28;;;;;;;3.73;2.07;;;;;;;;;;6343685;27;20015;-78
2023/08/08 17:32:28;;;;;;;3.17;1.90;;;;;;;;;;6340208;28;20040;-78
2023/08/08 17:35:28;;;;;;;2.73;1.83;;;;;;;;;;6341316;28;20060;-78
2023/08/08 17:38:28;;;;;;;5.07;2.67;;;;;;;;;;6325302;28;20449;-78
2023/08/08 17:41:29;;;;;;;5.70;2.07;;;;;;;;;;6335551;28;20107;-77
2023/08/08 17:44:29;;;;;;;7.30;3.77;;;;;;;;;;6335025;27;20019;-77
2023/08/08 17:47:30;;;;;;;10.30;4.67;;;;;;;;;;6595551;22;20143;-78
2023/08/08 17:50:34;;;;;;;5.18;2.92;;;;;;;;;;6244249;28;20091;-78
2023/08/08 17:53:34;;;;;;;6.88;4.20;;;;;;;;;;6241558;28;20024;-77
2023/08/08 17:56:34;;;;;;;10.20;5.53;;;;;;;;;;6254287;28;20048;-77
2023/08/08 17:59:36;;;;;;;8.50;3.73;;;;;;;;;;6260181;28;20029;-77
2023/08/08 18:02:36;;;;;;;10.75;4.53;;;;;;;;;;6254534;28;20032;-76